Dati Storici

Data ora Umidita' aria (%) Temperatura aria (°C) Rad globale (W/m²) Gonioanemometro (°) Tacoanemometro (m/s) Pioggia (mm)
12-10-2012 15:20 62.7 % 20.521 472.994 29.103 1.613 0
12-10-2012 15:10 65.8 % 19.246 311.873 322.417 1.071 0
12-10-2012 15:00 67.1 % 19.089 297.739 337.168 2.117 0
12-10-2012 14:50 68 % 18.716 288.597 331.563 2.003 0
12-10-2012 14:40 68.4 % 18.88 251.107 100.016 1.949 0
12-10-2012 14:30 68.5 % 18.531 239.965 322.053 1.231 0
12-10-2012 14:20 69.6 % 18.356 309.342 46.368 1.165 0
12-10-2012 14:10 71.2 % 17.996 320.55 337.531 0.945 0
12-10-2012 14:00 71.6 % 18.175 245.351 65.368 0.858 0
12-10-2012 13:50 72.5 % 17.817 238.026 267.395 0.659 0
12-10-2012 13:40 72.5 % 17.497 262.089 345.889 1.17 0
12-10-2012 13:30 72.1 % 17.337 292.535 1.192 1.329 0
12-10-2012 13:20 72.7 % 17.731 300.203 336.355 1.881 0
12-10-2012 13:10 74.2 % 17.407 250.672 10.279 0.763 0
12-10-2012 13:00 73.9 % 17.135 280.567 6.124 1.765 0
12-10-2012 12:50 73.9 % 17.001 219.197 8.629 1.88 0
12-10-2012 12:40 74.8 % 16.779 171.545 25.608 1.182 0
12-10-2012 12:30 74.3 % 16.687 158.441 344.042 2.517 0
12-10-2012 12:20 75.1 % 16.629 198.201 35.209 1.36 0
12-10-2012 12:10 74.5 % 16.373 239.977 3.814 1.999 0

I dati sono presentati in modo automatico a scopo informativo. In seguito a verifica i dati possono subire modifiche o essere invalidati e non riportati negli archivi definitivi.